MDST/STI METAR and TAF weather

Enter ICAO airport designator
Station Type Date Time Source
MDST METAR 2021/05/11 02:00 UTC NOAA

MDST 110200Z 07006KT 8000 -RA FEW016CB SCT016 BKN300 22/22 Q1019 CB/NE/E/SE


Station Type Date Time Source
MDST Decoded METAR 2021/05/11 02:00 UTC NOAA

Santiago, Dominican Republic (MDST) 19-27N 070-42W
May 10, 2021 - 10:00 PM EDT / 2021.05.11 0200 UTC
Wind: from the ENE (070 degrees) at 7 MPH (6 KT):0
Visibility: 4 mile(s):0
Sky conditions: mostly cloudy
Weather: light rain; Cumulonimbus clouds observed
Temperature: 71 F (22 C)
Dew Point: 71 F (22 C)
Relative Humidity: 100%
Pressure (altimeter): 30.09 in. Hg (1019 hPa)
ob: MDST 110200Z 07006KT 8000 -RA FEW016CB SCT016 BKN300 22/22 Q1019 CB/NE/E/SE
cycle: 2

Station Type Date Time Source
MDST TAF 2021/05/10 18:55 UTC NOAA

TAF MDST 101600Z 1018/1118 12010KT 9999 SCT022 BKN300 PROB30 1018/1100 7000 SHRA SCT016 BKN070

Example: see airport list